This is the latest recevied weather packets stored in our database for station/object IZ1UQG-2. If no packets are shown the sender has not sent any weather packets the latest 10 day(s).
| Time | Temp. | Humidity | Pressure | Rain* | Wind** | Luminosity | Snow |
|---|---|---|---|---|---|---|---|
| 1777712405 | 17.22° C | 56% | 1024.3 hPa | 0 mm | - | 650 W/m² | - |
| 1777712344 | 17.22° C | 57% | 1024.4 hPa | 0 mm | - | 647 W/m² | - |
| 1777711385 | 17.22° C | 59% | 1024.3 hPa | 0 mm | - | 635 W/m² | - |
| 1777711324 | 17.22° C | 58% | 1024.3 hPa | 0 mm | - | 638 W/m² | - |
| 1777711264 | 17.22° C | 58% | 1024.2 hPa | 0 mm | - | 636 W/m² | - |
| 1777710784 | 16.67° C | 59% | 1024.5 hPa | 0 mm | - | 617 W/m² | - |
| 1777710484 | 16.67° C | 59% | 1024.5 hPa | 0 mm | - | 612 W/m² | - |
| 1777710425 | 16.67° C | 59% | 1024.3 hPa | 0 mm | - | 612 W/m² | - |
| 1777709825 | 16.11° C | 61% | 1024.6 hPa | 0 mm | - | 580 W/m² | - |
| 1777709524 | 16.11° C | 61% | 1024.6 hPa | 0 mm | - | 561 W/m² | - |
| 1777709051 | 15.56° C | 63% | 1024.8 hPa | 0 mm | - | 541 W/m² | - |
| 1777708564 | 15° C | 63% | 1024.7 hPa | 0 mm | - | 517 W/m² | - |
| 1777708385 | 15° C | 63% | 1024.8 hPa | 0 mm | - | 515 W/m² | - |
| 1777707914 | 15° C | 64% | 1025 hPa | 0 mm | - | 494 W/m² | - |
| 1777707664 | 14.44° C | 66% | 1025 hPa | 0 mm | - | 490 W/m² | - |
| 1777707305 | 14.44° C | 66% | 1025.1 hPa | 0 mm | - | 468 W/m² | - |
| 1777707244 | 14.44° C | 67% | 1025.1 hPa | 0 mm | - | 462 W/m² | - |
| 1777707192 | 14.44° C | 67% | 1025.1 hPa | 0 mm | - | 461 W/m² | - |
| 1777706765 | 13.89° C | 68% | 1025.2 hPa | 0 mm | - | 438 W/m² | - |
| 1777706345 | 13.89° C | 68% | 1025.1 hPa | 0 mm | - | 427 W/m² | - |
| 1777705444 | 13.33° C | 70% | 1025.3 hPa | 0 mm | - | 390 W/m² | - |
| 1777705265 | 13.33° C | 71% | 1025.2 hPa | 0 mm | - | 381 W/m² | - |
| 1777704784 | 12.78° C | 71% | 1025.4 hPa | 0 mm | - | 345 W/m² | - |
| 1777704724 | 12.78° C | 72% | 1025.4 hPa | 0 mm | - | 346 W/m² | - |
| 1777704611 | 12.78° C | 71% | 1025.4 hPa | 0 mm | - | 345 W/m² | - |
* Rain latest hour (hover to see other rain measurements)
** Current wind speed in m/s (hover to see current wind gust speed)